Dwarkashish Heliport

IN-0175 · Gujarat, India

Storia di METAR IN-0175 · Dwarkashish Heliport

Di seguito sono riportati i METAR degli ultimi giorni. Seleziona un anno per sfogliare i METAR più vecchi, dall'anno 2007 in poi.

15 luglio 2024

Tempo Codice Tempo meteorologico Temp. Vista Base nuvolosa Vento METAR/SPECI
06:30
M
30 °C 5 km - 260° 260° 9 kt METAR OPKC 150100Z 26009KT 5000 FU SCT030 30/26 Q0998 NOSIG
06:00
M
31 °C 5 km - 260° 260° 8 kt METAR OPKC 150030Z 26008KT 5000 FU SCT030 31/26 Q0998 NOSIG
05:30
M
31 °C 5 km - 270° 270° 6 kt METAR OPKC 150000Z 27006KT 5000 FU SCT030 31/26 Q0998 NOSIG
05:00
M
31 °C 5 km - 270° 270° 9 kt METAR OPKC 142330Z 27009KT 5000 FU SCT030 31/26 Q0998 NOSIG
04:30
M
31 °C 5 km - 270° 270° 7 kt METAR OPKC 142300Z 27007KT 5000 FU SCT030 31/26 Q0998 NOSIG
04:00
M
31 °C 5 km - 270° 270° 6 kt METAR OPKC 142230Z 27006KT 5000 FU SCT030 31/26 Q0998 NOSIG
03:30
M
31 °C 5 km - 260° 260° 8 kt METAR OPKC 142200Z 26008KT 5000 FU SCT030 31/26 Q0998 NOSIG
03:00
M
31 °C 5 km - 260° 260° 9 kt METAR OPKC 142130Z 26009KT 5000 FU SCT030 31/26 Q0998 NOSIG
02:30
M
31 °C 5 km 3.000 ft 250° 250° 9 kt METAR OPKC 142100Z 25009KT 5000 FU BKN030 31/26 Q0998 NOSIG
02:00
M
31 °C 5 km 3.000 ft 250° 250° 8 kt METAR OPKC 142030Z 25008KT 5000 FU BKN030 31/26 Q0998 NOSIG
01:30
M
31 °C 5 km 3.000 ft 240° 240° 10 kt METAR OPKC 142000Z 24010KT 5000 FU BKN030 31/26 Q0998 NOSIG
01:00
M
31 °C 5 km 3.000 ft 250° 250° 10 kt METAR OPKC 141930Z 25010KT 5000 FU BKN030 31/26 Q0999 NOSIG
00:30
M
31 °C 5 km 3.000 ft 250° 250° 9 kt METAR OPKC 141900Z 25009KT 5000 FU BKN030 31/26 Q0999 NOSIG
00:00
M
31 °C 5 km 3.000 ft 240° 240° 8 kt METAR OPKC 141830Z 24008KT 5000 FU BKN030 31/26 Q0999 NOSIG

14 luglio 2024

Tempo Codice Tempo meteorologico Temp. Vista Base nuvolosa Vento METAR/SPECI
23:30
M
31 °C 5 km 3.000 ft 240° 240° 9 kt METAR OPKC 141800Z 24009KT 5000 FU BKN030 31/26 Q0999 NOSIG
23:00
M
32 °C 5 km 3.000 ft 240° 240° 10 kt METAR OPKC 141730Z 24010KT 5000 FU BKN030 32/26 Q0998 NOSIG
22:30
M
31 °C 5 km - 220° 220° 10 kt METAR OPKC 141700Z 22010KT 5000 FU SCT030 31/25 Q0998 NOSIG
22:00
M
32 °C 5 km - 240° 240° 8 kt METAR OPKC 141630Z 24008KT 5000 FU SCT030 32/26 Q0998 NOSIG
21:30
M
32 °C 5 km - 240° 240° 9 kt METAR OPKC 141600Z 24009KT 5000 FU SCT030 32/25 Q0997 NOSIG
21:00
M
32 °C 5 km - 240° 240° 8 kt METAR OPKC 141530Z 24008KT 5000 HZ SCT030 32/25 Q0997 NOSIG
20:30
M
32 °C 5 km 3.000 ft 230° 230° 12 kt METAR OPKC 141500Z 23012KT 5000 HZ BKN030 32/25 Q0996 NOSIG
20:00
M
32 °C 5 km 3.000 ft 230° 230° 11 kt METAR OPKC 141430Z 23011KT 5000 HZ BKN030 32/25 Q0996 NOSIG
19:30
M
33 °C 5 km 3.000 ft 220° 220° 12 kt METAR OPKC 141400Z 22012KT 5000 HZ BKN030 33/25 Q0996 NOSIG
19:00
M
33 °C 6 km - 220° 220° 11 kt METAR OPKC 141330Z 22011KT 6000 SCT030 33/24 Q0995 NOSIG
18:30
M
33 °C 6 km - 220° 220° 10 kt METAR OPKC 141300Z 22010KT 6000 SCT030 33/24 Q0995 NOSIG
18:00
M
34 °C 6 km - 240° 240° 11 kt METAR OPKC 141230Z 24011KT 6000 SCT030 34/24 Q0995 NOSIG
17:30
M
35 °C 6 km - 240° 240° 9 kt METAR OPKC 141200Z 24009KT 6000 SCT030 35/24 Q0995 NOSIG
17:00
M
35 °C 6 km - 230° 230° 12 kt METAR OPKC 141130Z 23012KT 6000 SCT030 35/24 Q0995 NOSIG
16:30
M
35 °C 6 km - 240° 240° 15 kt METAR OPKC 141100Z 24015KT 6000 SCT030 35/23 Q0995 NOSIG
16:00
M
35 °C 6 km - 240° 240° 15 kt METAR OPKC 141030Z 24015KT 6000 SCT030 35/23 Q0996 NOSIG
15:30
M
35 °C 6 km - 240° 240° 15 kt METAR OPKC 141000Z 24015KT 6000 SCT030 35/23 Q0996 NOSIG
15:00
M
35 °C 6 km - 240° 240° 16 kt METAR OPKC 140930Z 24016KT 6000 SCT030 35/23 Q0996 NOSIG
14:30
M
36 °C 6 km 3.000 ft 240° 240° 12 kt METAR OPKC 140900Z 24012KT 6000 BKN030 36/23 Q0996 NOSIG
14:00
M
35 °C 6 km 3.000 ft 240° 240° 16 kt METAR OPKC 140830Z 24016KT 6000 SCT020 BKN030 35/23 Q0997 NOSIG
13:30
M
34 °C 6 km 3.000 ft 240° 240° 14 kt METAR OPKC 140800Z 24014KT 6000 SCT020 BKN030 34/24 Q0997 NOSIG
13:00
M
35 °C 6 km 3.000 ft 240° 240° 15 kt METAR OPKC 140730Z 24015KT 6000 SCT020 BKN030 35/24 Q0997 NOSIG
12:30
M
34 °C 6 km 3.000 ft 240° 240° 14 kt METAR OPKC 140700Z 24014KT 6000 SCT020 BKN030 34/25 Q0998 NOSIG
12:00
M
33 °C 6 km 3.000 ft 240° 240° 10 kt METAR OPKC 140630Z 24010KT 6000 FEW020 BKN030 33/26 Q0998 NOSIG
11:30
M
33 °C 6 km 3.000 ft 240° 240° 10 kt METAR OPKC 140600Z 24010KT 6000 FEW020 BKN030 33/26 Q0998 NOSIG
11:00
M
33 °C 6 km 3.000 ft 240° 240° 12 kt METAR OPKC 140530Z 24012KT 6000 FEW020 BKN030 33/26 Q0999 NOSIG
10:30
M
33 °C 6 km 3.000 ft 240° 240° 12 kt METAR OPKC 140500Z 24012KT 6000 FEW020 BKN030 33/25 Q0998 NOSIG
10:00
M
33 °C 5 km 3.000 ft 260° 260° 8 kt METAR OPKC 140430Z 26008KT 5000 FU SCT020 BKN030 33/25 Q0998 NOSIG
09:30
M
32 °C 5 km 3.000 ft 260° 260° 8 kt METAR OPKC 140400Z 26008KT 5000 FU SCT020 BKN030 32/25 Q0998 NOSIG
09:00
M
32 °C 5 km 3.000 ft 270° 270° 9 kt METAR OPKC 140330Z 27009KT 5000 FU SCT020 BKN030 32/26 Q0998 NOSIG
08:30
M
32 °C 5 km 3.000 ft 250° 250° 6 kt METAR OPKC 140300Z 25006KT 5000 FU SCT020 BKN030 32/26 Q0998 NOSIG
08:00
M
31 °C 5 km 3.000 ft 270° 270° 9 kt METAR OPKC 140230Z 27009KT 5000 FU SCT020 BKN030 31/26 Q0998 NOSIG
07:30
M
31 °C 5 km 3.000 ft 270° 270° 6 kt METAR OPKC 140200Z 27006KT 5000 FU SCT020 BKN030 31/26 Q0998 NOSIG
07:00
M
31 °C 5 km - 270° 270° 9 kt METAR OPKC 140130Z 27009KT 5000 FU FEW020 SCT030 31/26 Q0998 NOSIG
06:30
M
31 °C 5 km - 280° 280° 8 kt METAR OPKC 140100Z 28008KT 5000 FU FEW020 SCT030 31/26 Q0998 NOSIG
06:00
M
31 °C 5 km - 260° 260° 11 kt METAR OPKC 140030Z 26011KT 5000 FU FEW020 SCT030 31/26 Q0997 NOSIG
05:30
M
31 °C 5 km 3.000 ft 250° 250° 9 kt METAR OPKC 140000Z 25009KT 5000 FU SCT020 BKN030 31/26 Q0997 NOSIG
05:00
M
31 °C 5 km 3.000 ft 260° 260° 9 kt METAR OPKC 132330Z 26009KT 5000 FU SCT020 BKN030 31/26 Q0997 NOSIG
04:30
M
31 °C 5 km 3.000 ft 260° 260° 7 kt METAR OPKC 132300Z 26007KT 5000 FU SCT020 BKN030 31/25 Q0997 NOSIG
04:00
M
31 °C 5 km 3.000 ft 260° 260° 10 kt METAR OPKC 132230Z 26010KT 5000 FU SCT020 BKN030 31/25 Q0997 NOSIG
03:30
M
31 °C 5 km 3.000 ft 270° 270° 13 kt METAR OPKC 132200Z 27013KT 5000 FU SCT020 BKN030 31/25 Q0997 NOSIG
03:00
M
31 °C 5 km 3.000 ft 250° 250° 9 kt METAR OPKC 132130Z 25009KT 5000 FU SCT020 BKN030 31/26 Q0998 NOSIG
02:30
M
31 °C 5 km 3.000 ft 250° 250° 8 kt METAR OPKC 132100Z 25008KT 5000 FU SCT020 BKN030 31/26 Q0998 NOSIG
02:00
M
31 °C 5 km 3.000 ft 260° 260° 8 kt METAR OPKC 132030Z 26008KT 5000 FU SCT020 BKN030 31/25 Q0998 NOSIG
01:30
M
31 °C 5 km 3.000 ft 260° 260° 10 kt METAR OPKC 132000Z 26010KT 5000 FU SCT020 BKN030 31/26 Q0998 NOSIG
01:00
M
31 °C 5 km 3.000 ft 250° 250° 10 kt METAR OPKC 131930Z 25010KT 5000 FU SCT020 BKN030 31/26 Q0998 NOSIG
00:30
M
31 °C 5 km 3.000 ft 260° 260° 12 kt METAR OPKC 131900Z 26012KT 5000 FU SCT020 BKN030 31/26 Q0999 TEMPO 25025KT
00:00
M
31 °C 5 km 3.000 ft 250° 250° 11 kt METAR OPKC 131830Z 25011KT 5000 FU SCT020 BKN030 31/26 Q0998 TEMPO 25025KT

13 luglio 2024

Tempo Codice Tempo meteorologico Temp. Vista Base nuvolosa Vento METAR/SPECI
23:30
M
31 °C 5 km 3.000 ft 250° 250° 12 kt METAR OPKC 131800Z 25012KT 5000 FU SCT020 BKN030 31/26 Q0998 TEMPO 25 025KT
23:00
M
31 °C 5 km 3.000 ft 250° 250° 12 kt METAR OPKC 131730Z 25012KT 5000 FU SCT020 BKN030 31/26 Q0998 TEMPO 25 025KT
22:30
M
31 °C 5 km 3.000 ft 250° 250° 14 kt METAR OPKC 131700Z 25014KT 5000 FU SCT020 BKN030 31/26 Q0998 TEMPO 25025KT
22:00
M
31 °C 5 km - 240° 240° 17 kt METAR OPKC 131630Z 24017KT 5000 FU FEW020 SCT030 31/26 Q0998 TEMPO 25025KT
21:30
M
31 °C 5 km - 250° 250° 15 kt METAR OPKC 131600Z 25015KT 5000 FU FEW020 SCT030 31/26 Q0997 TEMPO 25015G25KT
21:00
M
32 °C 5 km - 240° 240° 15 kt METAR OPKC 131530Z 24015KT 5000 FU FEW020 SCT030 32/26 Q0997 TEMPO 25015G25KT
20:30
M
32 °C 5 km - 240° 240° 12 kt METAR OPKC 131500Z 24012KT 5000 FU FEW020 SCT030 32/26 Q0997 TEMPO 25015G25KT
20:00
M
32 °C 5 km - 230° 230° 15 kt METAR OPKC 131430Z 23015KT 5000 HZ FEW020 SCT030 32/25 Q0996 TEMPO 25015G25KT
19:30
M
32 °C 5 km - 240° 240° 15 kt METAR OPKC 131400Z 24015KT 5000 HZ FEW020 SCT030 32/25 Q0996 TEMPO 25015G25KT
19:00
M
33 °C 5 km 2.000 ft 240° 240° 17 kt METAR OPKC 131330Z 24017KT 5000 HZ BKN020 33/25 Q0996 TEMPO 25015G25K T
18:30
M
33 °C 5 km 2.000 ft 240° 240° 15 kt METAR OPKC 131300Z 24015KT 5000 HZ BKN020 33/25 Q0996 TEMPO 25015G25KT
18:00
M
33 °C 5 km 2.000 ft 230° 230° 15 kt METAR OPKC 131230Z 23015KT 5000 HZ BKN020 33/25 Q0996 TEMPO 25015G25KT
17:30
M
34 °C 5 km 2.000 ft 240° 240° 17 kt METAR OPKC 131200Z 24017KT 5000 HZ BKN020 34/25 Q0996 TEMPO 24017G25K T
17:00
M
34 °C 5 km 2.000 ft 240° 240° 16 kt METAR OPKC 131130Z 24016KT 5000 HZ BKN020 34/22 Q0996 TEMPO 25015G25KT
16:30
M
34 °C 5 km 2.000 ft 240° 240° 20 kt METAR OPKC 131100Z 24020KT 5000 HZ BKN020 34/25 Q0996 TEMPO 25015G25K T
16:00
M
34 °C 5 km 2.000 ft 240° 240° 20 kt METAR OPKC 131030Z 24020KT 5000 HZ BKN020 34/25 Q0996 TEMPO 25015G25KT
15:30
M
35 °C 5 km 2.000 ft 240° 240° 18 kt METAR OPKC 131000Z 24018KT 5000 HZ BKN020 35/25 Q0996 TEMPO 25015G25KT
15:00
M
35 °C 5 km 2.000 ft 240° 240° 18 kt METAR OPKC 130930Z 24018KT 5000 HZ BKN020 35/24 Q0997 TEMPO 25015G25KT
14:30
M
35 °C 5 km 2.000 ft 240° 240° 18 kt METAR OPKC 130900Z 24018KT 5000 HZ BKN020 35/24 Q0997 TEMPO 25015G25KT
14:00
M
34 °C 5 km 2.000 ft 240° 240° 15 kt METAR OPKC 130830Z 24015KT 5000 HZ BKN020 34/25 Q0997 TEMPO 25015G25KT
13:30
M
34 °C 5 km 2.000 ft 240° 240° 20 kt METAR OPKC 130800Z 24020KT 5000 HZ BKN020 34/25 Q0998 TEMPO 25015G25KT
13:00
M
34 °C 5 km 2.000 ft 240° 240° 15 kt METAR OPKC 130730Z 24015KT 5000 HZ BKN020 34/25 Q0998 TEMPO 25015G25KT
12:30
M
33 °C 5 km 2.000 ft 250° 250° 16 kt METAR OPKC 130700Z 25016KT 5000 HZ BKN020 33/25 Q0998 TEMPO 25015G25KT
12:00
M
35 °C 5 km 2.000 ft 250° 250° 16 kt METAR OPKC 130630Z 25016KT 5000 HZ BKN020 35/25 Q0998 TEMPO 25015G25KT
11:30
M
33 °C 5 km 2.000 ft 250° 250° 15 kt METAR OPKC 130600Z 25015KT 5000 HZ BKN020 33/25 Q0998 TEMPO 26015G25KT
11:00
M
33 °C 5 km 3.000 ft 250° 250° 14 kt METAR OPKC 130530Z 25014KT 5000 HZ SCT020 BKN030 33/25 Q0998 TEMPO 25015G25KT
10:30
M
32 °C 5 km 3.000 ft 240° 240° 14 kt METAR OPKC 130500Z 24014KT 5000 HZ SCT020 BKN030 32/25 Q0998 TEMPO 25015G25KT
10:00
M
32 °C 5 km 3.000 ft 240° 240° 10 kt METAR OPKC 130430Z 24010KT 5000 HZ SCT020 BKN030 32/25 Q0998 TEMPO 25015G25KT
09:30
M
32 °C 5 km 3.000 ft 250° 250° 16 kt METAR OPKC 130400Z 25016KT 5000 HZ SCT020 BKN030 32/26 Q0998 TEMPO 25015G25KT
09:00
M
31 °C 5 km 3.000 ft 250° 250° 12 kt METAR OPKC 130330Z 25012KT 5000 FU SCT020 BKN030 31/26 Q0997 NOSIG
08:30
M
32 °C 5 km 3.000 ft 250° 250° 12 kt METAR OPKC 130300Z 25012KT 5000 FU SCT020 BKN030 32/26 Q0998 NOSIG
08:00
M
31 °C 5 km 3.000 ft 250° 250° 12 kt METAR OPKC 130230Z 25012KT 5000 FU SCT020 BKN030 31/25 Q0997 NOSIG
07:30
M
31 °C 5 km 3.000 ft 240° 240° 14 kt METAR OPKC 130200Z 24014KT 5000 FU SCT020 BKN030 31/25 Q0997 NOSIG
07:00
M
31 °C 5 km 3.000 ft 260° 260° 10 kt METAR OPKC 130130Z 26010KT 5000 FU SCT020 BKN030 31/25 Q0997 NOSIG
06:30
M
31 °C 5 km 2.000 ft 260° 260° 12 kt METAR OPKC 130100Z 26012KT 5000 FU BKN020 31/25 Q0996 TEMPO 25017G27KT
06:00
M
31 °C 5 km 2.000 ft 260° 260° 8 kt METAR OPKC 130030Z 26008KT 5000 FU BKN020 31/26 Q0996 TEMPO 25017G27KT
05:30
M
31 °C 5 km 2.000 ft 250° 250° 12 kt METAR OPKC 130000Z 25012KT 5000 FU BKN020 31/26 Q0996 TEMPO 25017G27KT
05:00
M
31 °C 5 km 2.000 ft 250° 250° 16 kt METAR OPKC 122330Z 25016KT 5000 FU BKN020 31/26 Q0996 TEMPO 25017G25KT
04:30
M
31 °C 5 km 2.000 ft 250° 250° 16 kt METAR OPKC 122300Z 25016KT 5000 FU BKN020 31/26 Q0996 TEMPO 25017G25KT
04:00
M
31 °C 5 km 2.000 ft 250° 250° 16 kt METAR OPKC 122230Z 25016KT 5000 FU BKN020 31/25 Q0995 TEMPO 25017G27KT
03:30
M
31 °C 5 km 2.000 ft 250° 250° 14 kt METAR OPKC 122200Z 25014KT 5000 FU BKN020 31/26 Q0996 TEMPO 25017G25KT
03:00
M
31 °C 5 km 2.000 ft 250° 250° 18 kt METAR OPKC 122130Z 25018KT 5000 FU BKN020 31/26 Q0996 NOSIG
02:30
M
31 °C 5 km 2.000 ft 250° 250° 12 kt METAR OPKC 122100Z 25012KT 5000 FU BKN020 31/26 Q0996 NOSIG
02:00
M
31 °C 5 km 2.000 ft 250° 250° 16 kt METAR OPKC 122030Z 25016KT 5000 FU BKN020 31/26 Q0997 NOSIG
01:30
M
31 °C 5 km 2.000 ft 250° 250° 14 kt METAR OPKC 122000Z 25014KT 5000 FU BKN020 31/26 Q0997 NOSIG
01:00
M
31 °C 5 km 2.000 ft 250° 250° 10 kt METAR OPKC 121930Z 25010KT 5000 FU BKN020 31/26 Q0997 NOSIG
00:30
M
31 °C 5 km 2.000 ft 250° 250° 14 kt METAR OPKC 121900Z 25014KT 5000 FU BKN020 31/25 Q0997 NOSIG
00:00
M
31 °C 5 km 2.000 ft 250° 250° 12 kt METAR OPKC 121830Z 25012KT 5000 FU BKN020 31/26 Q0998 TEMPO 25015G25KT

12 luglio 2024

Tempo Codice Tempo meteorologico Temp. Vista Base nuvolosa Vento METAR/SPECI
23:30
M
31 °C 5 km 2.000 ft 240° 240° 16 kt METAR OPKC 121800Z 24016KT 5000 FU BKN020 31/26 Q0998 TEMPO 25015G25KT
23:00
M
31 °C 5 km 2.000 ft 250° 250° 16 kt METAR OPKC 121730Z 25016KT 5000 FU BKN020 31/26 Q0998 TEMPO 25015G25K T
22:30
M
31 °C 5 km 2.000 ft 240° 240° 16 kt METAR OPKC 121700Z 24016KT 5000 FU BKN020 31/26 Q0997 NOSIG
22:00
M
31 °C 5 km 2.000 ft 250° 250° 16 kt METAR OPKC 121630Z 25016KT 5000 FU BKN020 31/26 Q0997 TEMPO 25015G25KT
21:30
M
0 °C 5 km - 240° 240° 19 kt METAR OPKC 121600Z 24019KT 5000 REDZ SCT020 BKN030 31/26 Q0997 TEMPO 24030KT
21:00
M
31 °C 5 km 3.000 ft 240° 240° 20 kt METAR OPKC 121530Z 24020KT 5000 DZ SCT020 BKN030 31/26 Q0996 TEMPO 24030KT
20:30
M
32 °C 5 km 3.000 ft 240° 240° 22 kt METAR OPKC 121500Z 24022KT 5000 FU SCT020 BKN030 32/26 Q0996 TEMPO 24 030KT
20:00
M
32 °C 5 km 3.000 ft 250° 250° 20 kt METAR OPKC 121430Z 25020KT 5000 FU SCT020 BKN030 32/25 Q0996 TEMPO 24030KT
19:30
M
32 °C 5 km 3.000 ft 240° 240° 24 kt METAR OPKC 121400Z 24024KT 5000 FU SCT020 BKN030 32/25 Q0995 TEMPO 24030KT
19:00
M
32 °C 5 km 3.000 ft 240° 240° 20 kt METAR OPKC 121330Z 24020KT 5000 FU SCT020 BKN030 32/25 Q0995 TEMPO 24030KT
18:30
M
33 °C 5 km 3.000 ft 240° 240° 22 kt METAR OPKC 121300Z 24022KT 5000 FU SCT020 BKN030 33/25 Q0995 TEMPO 24030KT
18:00
M
33 °C 5 km 3.000 ft 240° 240° 19 kt METAR OPKC 121230Z 24019KT 5000 FU SCT020 BKN030 33/25 Q0995 TEMPO 24030KT
17:30
M
34 °C 5 km 3.000 ft 240° 240° 25 kt METAR OPKC 121200Z 24025KT 5000 FU SCT020 BKN030 34/24 Q0995 TEMPO 24030KT
17:00
M
34 °C 5 km 3.000 ft 240° 240° 24 kt METAR OPKC 121130Z 24024KT 5000 FU SCT020 BKN030 34/24 Q0995 TEMPO 24030KT
16:30
M
34 °C 5 km 3.000 ft 250° 250° 26 kt METAR OPKC 121100Z 25026KT 5000 FU SCT020 BKN030 34/24 Q0995 TEMPO 24030KT
16:00
M
34 °C 5 km 3.000 ft 240° 240° 24 kt METAR OPKC 121030Z 24024KT 5000 FU SCT020 BKN030 34/24 Q0996 TEMPO 24030KT
15:30
M
34 °C 5 km 3.000 ft 250° 250° 22 kt METAR OPKC 121000Z 25022KT 5000 FU SCT020 BKN030 34/25 Q0996 TEMPO 24 030KT
15:00
M
34 °C 5 km 3.000 ft 250° 250° 21 kt METAR OPKC 120930Z 25021KT 5000 FU SCT020 BKN030 34/25 Q0996 TEMPO 24030KT
14:30
M
34 °C 5 km 3.000 ft 250° 250° 24 kt METAR OPKC 120900Z 25024KT 5000 FU SCT020 BKN030 34/25 Q0996 TEMPO 24 030KT
14:00
M
34 °C 5 km 3.000 ft 250° 250° 24 kt METAR OPKC 120830Z 25024KT 5000 FU SCT020 BKN030 34/25 Q0996 TEMPO 24030KT
13:30
M
34 °C 5 km 3.000 ft 250° 250° 28 kt METAR OPKC 120800Z 25028KT 5000 FU SCT020 BKN030 34/25 Q0997 TEMPO 24 030KT
13:00
M
34 °C 5 km 3.000 ft 250° 250° 24 kt METAR OPKC 120730Z 25024KT 5000 FU SCT020 BKN030 34/25 Q0997 TEMPO 24027KT
12:30
I
34 °C 4 km 3.000 ft 250° 250° 26 kt METAR OPKC 120700Z 25026KT 4000 FU SCT020 BKN030 34/25 Q0997 TEMPO 24027KT
12:00
I
34 °C 4 km 3.000 ft 250° 250° 26 kt METAR OPKC 120630Z 25026KT 4000 FU SCT020 BKN030 34/25 Q0997 TEMPO 24027KT
11:30
I
33 °C 4 km 3.000 ft 250° 250° 23 kt METAR OPKC 120600Z 25023KT 4000 FU SCT020 BKN030 33/25 Q0997 TEMPO 24027KT
Segnala modifiche